Time;durP1;ratioP1;P1;durP2;ratioP2;P2;SDS_P1;SDS_P2;PMS_P1;PMS_P2;Temp;Humidity;BMP_temperature;BMP_pressure;BME280_temperature;BME280_humidity;BME280_pressure;Samples;Min_cycle;Max_cycle;Signal;HPM_P1;HPM_P2
2023/07/20 00:01:17;;;;;;;1.45;1.35;;;16.80;99.90;;;;;;5051055;28;20406;-45
2023/07/20 00:03:43;;;;;;;2.97;1.75;;;16.80;99.90;;;;;;5044859;28;20134;-45
2023/07/20 00:06:09;;;;;;;1.83;1.10;;;16.70;99.90;;;;;;5050534;28;20048;-47
2023/07/20 00:08:34;;;;;;;3.03;1.00;;;16.70;99.90;;;;;;5050790;28;20037;-45
2023/07/20 00:11:00;;;;;;;1.77;0.90;;;16.70;99.90;;;;;;5050093;28;20405;-47
2023/07/20 00:13:25;;;;;;;2.20;0.80;;;16.70;99.90;;;;;;5049621;28;20036;-47
2023/07/20 00:15:51;;;;;;;0.85;0.63;;;16.60;99.90;;;;;;5050335;28;20047;-46
2023/07/20 00:18:17;;;;;;;1.58;1.20;;;16.60;99.90;;;;;;5051024;28;20033;-45
2023/07/20 00:20:43;;;;;;;1.25;0.90;;;16.50;99.90;;;;;;5050823;28;20043;-45
2023/07/20 00:23:09;;;;;;;1.80;1.15;;;16.50;99.90;;;;;;5050799;28;20482;-46
2023/07/20 00:25:35;;;;;;;1.88;0.93;;;16.50;99.90;;;;;;5051079;28;20040;-45
2023/07/20 00:28:01;;;;;;;1.33;0.60;;;16.50;99.90;;;;;;5050410;28;20037;-45
2023/07/20 00:30:27;;;;;;;2.03;0.70;;;16.50;99.90;;;;;;5050418;28;20037;-47
2023/07/20 00:32:52;;;;;;;1.25;1.00;;;16.50;99.90;;;;;;5052114;28;20489;-45
2023/07/20 00:35:18;;;;;;;1.25;0.55;;;16.40;99.90;;;;;;5050286;28;20148;-46
2023/07/20 00:37:44;;;;;;;0.82;0.45;;;16.40;99.90;;;;;;5050712;28;20095;-45
2023/07/20 00:40:09;;;;;;;0.45;0.45;;;16.40;99.90;;;;;;5041009;28;20048;-46
2023/07/20 00:42:35;;;;;;;0.70;0.68;;;16.40;99.90;;;;;;5050786;28;20385;-46
2023/07/20 00:45:01;;;;;;;0.60;0.57;;;16.40;99.90;;;;;;5041678;28;20037;-45
2023/07/20 00:47:27;;;;;;;0.75;0.68;;;16.40;99.90;;;;;;5050757;28;20397;-45
2023/07/20 00:49:53;;;;;;;;;;;16.30;99.90;;;;;;5049101;28;20029;-45
2023/07/20 00:52:21;;;;;;;1.20;0.68;;;16.30;99.90;;;;;;5050430;28;19916;-45
2023/07/20 00:54:47;;;;;;;0.77;0.60;;;16.30;99.90;;;;;;5050214;28;20124;-46
2023/07/20 00:57:17;;;;;;;1.23;0.60;;;16.30;99.90;;;;;;5050119;28;20032;-44
2023/07/20 00:59:43;;;;;;;1.88;0.80;;;16.30;99.90;;;;;;5050548;28;20048;-45
2023/07/20 01:02:09;;;;;;;1.55;1.02;;;16.20;99.90;;;;;;5050636;28;20083;-45
2023/07/20 01:04:35;;;;;;;0.88;0.88;;;16.20;99.90;;;;;;5049742;28;20033;-44
2023/07/20 01:07:02;;;;;;;;;;;16.20;99.90;;;;;;5047070;28;20510;-46
2023/07/20 01:09:47;;;;;;;1.45;0.63;;;16.20;99.90;;;;;;5052434;28;19916;-47
2023/07/20 01:12:20;;;;;;;1.75;1.02;;;16.20;99.90;;;;;;5050326;28;20037;-44
2023/07/20 01:14:47;;;;;;;0.73;0.73;;;16.20;99.90;;;;;;5049640;28;20494;-46
2023/07/20 01:17:13;;;;;;;;;;;16.20;99.90;;;;;;5049336;28;20048;-45
2023/07/20 01:19:39;;;;;;;0.82;0.68;;;16.20;99.90;;;;;;5048631;28;20305;-44
2023/07/20 01:22:07;;;;;;;0.90;0.85;;;16.10;99.90;;;;;;5051471;28;20045;-47
2023/07/20 01:25:05;;;;;;;0.75;0.63;;;16.10;99.90;;;;;;5048555;28;20540;-45
2023/07/20 01:27:40;;;;;;;1.17;0.82;;;16.00;99.90;;;;;;5042356;28;20037;-45
2023/07/20 01:30:23;;;;;;;2.15;0.68;;;16.00;99.90;;;;;;5049347;28;20414;-46
2023/07/20 01:32:50;;;;;;;2.42;1.05;;;16.00;99.90;;;;;;5049274;28;20033;-47
2023/07/20 01:35:17;;;;;;;0.82;0.65;;;16.00;99.90;;;;;;5049715;28;20398;-45
2023/07/20 01:37:46;;;;;;;0.70;0.70;;;16.00;99.90;;;;;;5055228;28;20050;-46
2023/07/20 01:40:13;;;;;;;1.08;0.95;;;16.00;99.90;;;;;;5045350;28;20249;-45
2023/07/20 01:42:44;;;;;;;3.65;1.08;;;16.00;99.90;;;;;;5049750;28;20037;-46
2023/07/20 01:45:10;;;;;;;2.70;1.10;;;16.00;99.90;;;;;;5049258;28;20045;-45
2023/07/20 01:47:35;;;;;;;1.92;1.30;;;16.00;99.90;;;;;;5049432;28;20143;-45
2023/07/20 01:50:01;;;;;;;1.50;1.40;;;15.90;99.90;;;;;;5049773;28;20086;-46
2023/07/20 01:52:26;;;;;;;1.48;1.38;;;15.90;99.90;;;;;;5049721;28;20608;-46
2023/07/20 01:54:52;;;;;;;1.80;1.70;;;15.90;99.90;;;;;;5049346;28;20033;-46
2023/07/20 01:57:18;;;;;;;1.42;1.33;;;15.90;99.90;;;;;;5049578;28;20041;-47
2023/07/20 01:59:43;;;;;;;4.20;2.00;;;15.90;99.90;;;;;;5049326;28;20037;-45
2023/07/20 02:02:09;;;;;;;2.60;2.25;;;15.90;99.90;;;;;;5049739;28;20041;-45
2023/07/20 02:04:34;;;;;;;2.08;1.98;;;15.90;99.90;;;;;;5048820;28;20044;-46
2023/07/20 02:07:00;;;;;;;1.92;1.83;;;15.90;99.90;;;;;;5048489;28;20410;-46
2023/07/20 02:09:25;;;;;;;2.17;2.08;;;15.90;99.90;;;;;;5049200;28;20029;-45
2023/07/20 02:11:51;;;;;;;2.08;1.98;;;15.80;99.90;;;;;;5049766;28;20029;-45
2023/07/20 02:14:17;;;;;;;2.13;2.03;;;15.80;99.90;;;;;;5053073;28;20498;-47
2023/07/20 02:16:42;;;;;;;1.88;1.77;;;15.80;99.90;;;;;;5047655;28;20073;-46
2023/07/20 02:19:08;;;;;;;3.80;2.00;;;15.80;99.90;;;;;;5049206;28;20037;-45
2023/07/20 02:21:33;;;;;;;1.85;1.75;;;15.70;99.90;;;;;;5050302;28;20119;-46
2023/07/20 02:23:59;;;;;;;2.33;2.13;;;15.70;99.90;;;;;;5052187;28;20040;-47
2023/07/20 02:26:25;;;;;;;2.25;2.03;;;15.70;99.90;;;;;;5052780;28;20036;-46
2023/07/20 02:28:50;;;;;;;1.67;1.58;;;15.60;99.90;;;;;;5053020;28;20036;-45
2023/07/20 02:31:16;;;;;;;2.42;1.95;;;15.60;99.90;;;;;;5054680;28;20041;-44
2023/07/20 02:33:42;;;;;;;3.63;2.15;;;15.60;99.90;;;;;;5052857;28;20102;-46
2023/07/20 02:36:07;;;;;;;2.30;2.10;;;15.50;99.90;;;;;;5051322;28;20037;-47
2023/07/20 02:38:33;;;;;;;2.60;2.10;;;15.50;99.90;;;;;;5052675;28;20029;-45
2023/07/20 02:40:58;;;;;;;2.47;2.28;;;15.40;99.90;;;;;;5047685;28;20320;-44
2023/07/20 02:43:24;;;;;;;2.20;2.03;;;15.40;99.90;;;;;;5055676;28;20043;-47
2023/07/20 02:45:50;;;;;;;2.10;1.85;;;15.40;99.90;;;;;;5052510;28;20156;-44
2023/07/20 02:48:16;;;;;;;2.88;2.50;;;15.30;99.90;;;;;;5052847;28;20716;-45
2023/07/20 02:50:43;;;;;;;2.33;2.10;;;15.30;99.90;;;;;;5053148;28;20120;-44
2023/07/20 02:53:09;;;;;;;2.45;2.25;;;15.20;99.90;;;;;;5052757;28;20040;-44
2023/07/20 02:55:34;;;;;;;2.22;1.92;;;15.20;99.90;;;;;;5052549;28;20611;-45
2023/07/20 02:58:00;;;;;;;1.58;1.48;;;15.10;99.90;;;;;;5052587;28;20037;-45
2023/07/20 03:00:26;;;;;;;0.98;0.98;;;15.10;99.90;;;;;;5052158;28;20120;-45
2023/07/20 03:02:55;;;;;;;1.27;0.93;;;15.00;99.90;;;;;;5052665;28;20067;-45
2023/07/20 03:05:22;;;;;;;7.18;1.27;;;15.00;99.90;;;;;;5067594;28;20044;-44
2023/07/20 03:07:48;;;;;;;1.33;1.15;;;14.90;99.90;;;;;;5052536;28;20040;-45
2023/07/20 03:10:14;;;;;;;5.55;0.73;;;14.90;99.90;;;;;;5052462;28;20120;-46
2023/07/20 03:12:40;;;;;;;1.77;1.17;;;14.80;99.90;;;;;;5052131;28;20112;-44
2023/07/20 03:15:06;;;;;;;0.80;0.80;;;14.80;99.90;;;;;;5052330;28;20041;-46
2023/07/20 03:17:31;;;;;;;4.70;0.95;;;14.80;99.90;;;;;;5052442;28;20112;-46
2023/07/20 03:19:59;;;;;;;12.55;1.30;;;14.80;99.90;;;;;;5058550;28;20143;-45
2023/07/20 03:22:25;;;;;;;2.17;1.00;;;14.70;99.90;;;;;;5052539;28;20472;-45
2023/07/20 03:24:52;;;;;;;11.77;1.95;;;14.70;99.90;;;;;;5052193;28;20120;-46
2023/07/20 03:27:18;;;;;;;2.85;1.13;;;14.60;99.90;;;;;;5057353;28;20052;-44
2023/07/20 03:29:44;;;;;;;21.98;1.50;;;14.60;99.90;;;;;;5048597;28;20029;-45
2023/07/20 03:32:10;;;;;;;15.35;1.50;;;14.60;99.90;;;;;;5051907;28;20063;-47
2023/07/20 03:34:36;;;;;;;8.95;1.35;;;14.60;99.90;;;;;;5066525;28;20163;-44
2023/07/20 03:37:04;;;;;;;16.23;1.77;;;14.50;99.90;;;;;;5052101;28;20064;-45
2023/07/20 03:39:30;;;;;;;5.60;1.15;;;14.50;99.90;;;;;;5051894;28;20071;-45
2023/07/20 03:41:55;;;;;;;13.90;1.40;;;14.50;99.90;;;;;;5046225;28;20037;-44
2023/07/20 03:44:21;;;;;;;5.07;1.00;;;14.40;99.90;;;;;;5051653;28;20044;-44
2023/07/20 03:46:46;;;;;;;35.80;2.58;;;14.30;99.90;;;;;;5051629;28;20041;-47
2023/07/20 03:49:12;;;;;;;6.15;1.70;;;14.30;99.90;;;;;;5052876;28;20513;-45
2023/07/20 03:51:37;;;;;;;5.50;1.50;;;14.30;99.90;;;;;;5050447;28;20043;-45
2023/07/20 03:54:03;;;;;;;2.15;2.00;;;14.30;99.90;;;;;;5051535;28;20033;-46
2023/07/20 03:56:34;;;;;;;1.85;1.33;;;14.20;99.90;;;;;;5058811;28;20035;-46
2023/07/20 03:58:59;;;;;;;1.90;1.80;;;14.20;99.90;;;;;;5051721;28;20125;-44
2023/07/20 04:01:25;;;;;;;4.38;2.63;;;14.20;99.90;;;;;;5051650;28;20522;-45
2023/07/20 04:03:50;;;;;;;2.28;1.90;;;14.20;99.90;;;;;;5051570;28;20061;-46
2023/07/20 04:06:17;;;;;;;6.47;1.60;;;14.20;99.90;;;;;;5051246;28;20041;-44
2023/07/20 04:08:44;;;;;;;3.35;2.45;;;14.20;99.90;;;;;;5051343;28;20064;-45
2023/07/20 04:11:10;;;;;;;4.22;2.03;;;14.20;99.90;;;;;;5050924;28;20672;-46
2023/07/20 04:13:35;;;;;;;2.72;2.53;;;14.20;99.90;;;;;;5051367;28;20304;-45
2023/07/20 04:16:02;;;;;;;1.83;1.73;;;14.20;99.90;;;;;;5049686;28;20048;-46
2023/07/20 04:18:27;;;;;;;2.00;1.90;;;14.20;99.90;;;;;;5050983;28;20040;-45
2023/07/20 04:20:53;;;;;;;2.78;2.67;;;14.20;99.90;;;;;;5051800;28;20059;-45
2023/07/20 04:23:19;;;;;;;3.67;2.20;;;14.20;99.90;;;;;;5051101;28;20032;-44
2023/07/20 04:25:44;;;;;;;4.70;2.33;;;14.20;99.90;;;;;;5055784;28;20025;-44
2023/07/20 04:28:10;;;;;;;2.45;2.35;;;14.20;99.90;;;;;;5051180;28;20106;-47
2023/07/20 04:30:36;;;;;;;3.10;2.20;;;14.20;99.90;;;;;;5051224;28;20055;-45
2023/07/20 04:33:05;;;;;;;5.22;2.30;;;14.20;99.90;;;;;;5050043;28;20095;-45
2023/07/20 04:35:54;;;;;;;3.30;2.17;;;14.20;99.90;;;;;;5049003;28;20025;-46
2023/07/20 04:38:20;;;;;;;2.63;2.42;;;14.20;99.90;;;;;;5050608;28;20049;-45
2023/07/20 04:40:48;;;;;;;2.15;2.03;;;14.20;99.90;;;;;;5051004;28;20441;-44
2023/07/20 04:43:15;;;;;;;3.03;2.00;;;14.20;99.90;;;;;;5045984;28;20079;-44
2023/07/20 04:45:40;;;;;;;2.22;2.13;;;14.20;99.90;;;;;;5050372;28;20044;-44
2023/07/20 04:48:14;;;;;;;2.63;2.42;;;14.20;99.90;;;;;;5050175;28;20041;-44
2023/07/20 04:50:44;;;;;;;2.05;1.95;;;14.20;99.90;;;;;;5049418;28;20037;-45
2023/07/20 04:53:11;;;;;;;3.85;3.55;;;14.20;99.90;;;;;;5053840;28;20368;-45
2023/07/20 04:55:38;;;;;;;5.25;4.85;;;14.20;99.90;;;;;;5049638;28;20493;-44
2023/07/20 04:58:04;;;;;;;6.82;5.57;;;14.20;99.90;;;;;;5050789;28;20044;-45
2023/07/20 05:00:30;;;;;;;6.53;6.03;;;14.20;99.90;;;;;;5049981;28;20512;-44
2023/07/20 05:02:56;;;;;;;;;;;14.30;99.90;;;;;;5050770;28;20063;-45
2023/07/20 05:05:22;;;;;;;7.00;6.40;;;14.30;99.90;;;;;;5049416;28;19917;-45
2023/07/20 05:07:47;;;;;;;5.82;5.28;;;14.40;99.90;;;;;;5050345;28;20116;-45
2023/07/20 05:10:13;;;;;;;5.20;4.75;;;14.40;99.90;;;;;;5050343;28;20033;-47
2023/07/20 05:12:39;;;;;;;4.53;4.03;;;14.50;99.90;;;;;;5050522;28;20033;-45
2023/07/20 05:15:05;;;;;;;4.68;4.38;;;14.50;99.90;;;;;;5049869;28;20033;-45
2023/07/20 05:17:30;;;;;;;6.90;4.15;;;14.50;99.90;;;;;;5050048;28;20068;-45
2023/07/20 05:19:56;;;;;;;3.97;3.67;;;14.60;99.90;;;;;;5049688;28;20110;-44
2023/07/20 05:22:22;;;;;;;3.65;3.45;;;14.60;99.90;;;;;;5050198;28;20049;-44
2023/07/20 05:24:48;;;;;;;4.10;3.72;;;14.70;99.90;;;;;;5050007;28;20039;-46
2023/07/20 05:27:14;;;;;;;4.43;3.75;;;14.70;99.90;;;;;;5049890;28;20494;-45
2023/07/20 05:29:44;;;;;;;3.60;3.25;;;14.80;99.90;;;;;;5049962;28;20033;-47
2023/07/20 05:32:10;;;;;;;5.35;3.38;;;14.90;99.90;;;;;;5048899;28;20045;-45
2023/07/20 05:34:35;;;;;;;3.55;3.00;;;15.00;99.90;;;;;;5049593;28;20449;-44
2023/07/20 05:37:01;;;;;;;3.33;3.10;;;15.10;99.90;;;;;;5048923;28;20120;-45
2023/07/20 05:39:26;;;;;;;4.10;3.75;;;15.20;99.90;;;;;;5048552;28;20048;-46
2023/07/20 05:41:52;;;;;;;3.10;2.13;;;15.20;99.90;;;;;;5049207;28;20490;-45
2023/07/20 05:44:17;;;;;;;2.08;1.98;;;15.30;99.90;;;;;;5044656;28;20037;-45
2023/07/20 05:46:43;;;;;;;2.85;2.53;;;15.30;99.90;;;;;;5049401;28;20045;-46
2023/07/20 05:49:09;;;;;;;2.63;2.00;;;15.40;99.90;;;;;;5049250;28;20057;-46
2023/07/20 05:51:35;;;;;;;2.60;2.05;;;15.50;99.90;;;;;;5049974;28;20044;-47
2023/07/20 05:54:00;;;;;;;1.70;1.60;;;15.50;99.90;;;;;;5044999;28;20029;-44
2023/07/20 05:56:26;;;;;;;2.17;1.40;;;15.60;99.90;;;;;;5049849;28;20041;-45
2023/07/20 05:58:51;;;;;;;1.70;0.90;;;15.70;99.90;;;;;;5053627;28;20039;-46
2023/07/20 06:01:18;;;;;;;3.45;1.02;;;15.80;99.90;;;;;;5054101;28;20045;-46
2023/07/20 06:03:44;;;;;;;1.33;0.82;;;15.80;99.90;;;;;;5051580;28;20087;-44
2023/07/20 06:06:11;;;;;;;1.52;0.82;;;15.90;99.90;;;;;;5045830;28;20037;-46
2023/07/20 06:08:37;;;;;;;2.50;1.00;;;16.00;99.90;;;;;;5049899;28;20041;-45
2023/07/20 06:11:03;;;;;;;2.22;0.65;;;16.10;99.90;;;;;;5047185;28;20041;-45
2023/07/20 06:13:29;;;;;;;0.75;0.50;;;16.10;99.90;;;;;;5039276;28;20039;-47
2023/07/20 06:15:55;;;;;;;2.42;0.68;;;16.20;99.90;;;;;;5043861;28;20112;-45
2023/07/20 06:18:23;;;;;;;2.88;0.63;;;16.30;99.90;;;;;;5041812;28;20412;-47
2023/07/20 06:20:52;;;;;;;2.72;0.55;;;16.30;99.90;;;;;;5038786;28;20029;-48
2023/07/20 06:23:20;;;;;;;3.38;0.43;;;16.40;99.90;;;;;;5048218;28;20084;-47
2023/07/20 06:25:46;;;;;;;1.00;0.40;;;16.50;99.90;;;;;;5050013;28;20080;-46
2023/07/20 06:28:12;;;;;;;0.60;0.30;;;16.60;99.90;;;;;;5053114;28;20037;-46
2023/07/20 06:30:38;;;;;;;;;;;16.60;99.90;;;;;;5049580;28;20314;-45
2023/07/20 06:33:03;;;;;;;0.93;0.30;;;16.70;99.90;;;;;;5052857;28;20016;-47
2023/07/20 06:35:29;;;;;;;2.15;0.30;;;16.80;99.90;;;;;;5052795;28;20033;-45
2023/07/20 06:37:54;;;;;;;3.58;0.30;;;16.90;99.90;;;;;;5052230;28;20033;-47
2023/07/20 06:40:21;;;;;;;2.47;0.32;;;17.00;99.90;;;;;;5052912;28;20048;-46
2023/07/20 06:42:46;;;;;;;0.85;0.30;;;17.10;99.90;;;;;;5051853;28;20408;-47
2023/07/20 06:45:12;;;;;;;2.00;0.50;;;17.10;99.90;;;;;;5051486;28;20037;-46
2023/07/20 06:47:39;;;;;;;1.05;0.20;;;17.20;99.90;;;;;;5053213;28;20052;-45
2023/07/20 06:50:09;;;;;;;0.43;0.20;;;17.30;99.90;;;;;;5048383;28;20048;-47
2023/07/20 06:52:35;;;;;;;1.00;0.20;;;17.40;99.90;;;;;;5053027;28;20037;-45
2023/07/20 06:55:00;;;;;;;0.40;0.20;;;17.50;99.90;;;;;;5052835;28;20123;-45
2023/07/20 06:57:26;;;;;;;0.98;0.20;;;17.50;99.90;;;;;;5053494;28;20120;-45
2023/07/20 06:59:53;;;;;;;0.90;0.20;;;17.60;99.90;;;;;;5052413;28;20106;-45
2023/07/20 07:02:19;;;;;;;0.65;0.20;;;17.70;99.90;;;;;;5052922;28;20482;-45
2023/07/20 07:04:45;;;;;;;1.42;0.20;;;17.70;99.90;;;;;;5052502;28;20040;-45
2023/07/20 07:07:11;;;;;;;1.25;0.30;;;17.80;99.90;;;;;;5051818;28;20048;-46
2023/07/20 07:09:36;;;;;;;1.05;0.13;;;17.80;99.90;;;;;;5051447;28;20406;-45
2023/07/20 07:12:02;;;;;;;2.28;0.17;;;17.90;99.90;;;;;;5052579;28;20341;-47
2023/07/20 07:14:28;;;;;;;2.72;0.32;;;18.00;99.90;;;;;;5051588;28;20090;-45
2023/07/20 07:16:53;;;;;;;4.18;0.20;;;18.00;99.90;;;;;;5052281;28;20055;-45
2023/07/20 07:19:19;;;;;;;0.68;0.22;;;18.00;99.90;;;;;;5050424;28;20486;-45
2023/07/20 07:21:45;;;;;;;0.95;0.20;;;18.10;99.90;;;;;;5052438;28;20134;-45
2023/07/20 07:24:11;;;;;;;2.33;0.30;;;18.10;99.90;;;;;;5052313;28;20091;-47
2023/07/20 07:26:37;;;;;;;0.73;0.10;;;18.10;99.90;;;;;;5052088;28;20037;-45
2023/07/20 07:29:03;;;;;;;;;;;18.20;99.90;;;;;;5052604;28;20388;-47
2023/07/20 07:31:30;;;;;;;0.70;0.10;;;18.10;99.90;;;;;;5052128;28;20393;-46
2023/07/20 07:33:55;;;;;;;1.95;0.20;;;18.20;99.90;;;;;;5051599;28;20478;-47
2023/07/20 07:36:21;;;;;;;2.42;0.20;;;18.20;99.90;;;;;;5052129;28;20048;-47
2023/07/20 07:38:47;;;;;;;3.70;0.40;;;18.30;99.90;;;;;;5052382;28;20043;-47
2023/07/20 07:41:13;;;;;;;5.25;0.20;;;18.40;99.90;;;;;;5070906;28;20098;-45
2023/07/20 07:43:39;;;;;;;0.57;0.20;;;18.50;99.90;;;;;;5071750;28;20047;-45
2023/07/20 07:46:04;;;;;;;2.17;0.20;;;18.60;99.90;;;;;;5064793;28;20037;-46
2023/07/20 07:48:30;;;;;;;0.55;0.20;;;18.70;99.90;;;;;;5049879;28;20052;-45
2023/07/20 07:50:56;;;;;;;0.60;0.10;;;18.70;99.90;;;;;;5051064;28;20044;-46
2023/07/20 07:53:21;;;;;;;1.08;0.30;;;18.80;99.90;;;;;;5039005;28;20029;-45
2023/07/20 07:55:50;;;;;;;1.55;0.20;;;18.70;99.90;;;;;;5036028;28;20041;-45
2023/07/20 07:58:16;;;;;;;0.80;0.30;;;18.70;99.90;;;;;;5046000;28;20051;-45
2023/07/20 08:00:43;;;;;;;2.28;0.17;;;18.60;99.90;;;;;;5047492;28;20037;-47
2023/07/20 08:03:09;;;;;;;0.40;0.20;;;18.60;99.90;;;;;;5043198;28;20394;-46
2023/07/20 08:05:37;;;;;;;1.50;0.10;;;18.70;99.90;;;;;;5048746;28;20037;-47
2023/07/20 08:08:05;;;;;;;2.17;0.20;;;18.80;99.90;;;;;;5045285;28;20728;-45
2023/07/20 08:10:32;;;;;;;0.82;0.20;;;19.00;99.90;;;;;;5042802;28;20021;-47
2023/07/20 08:12:57;;;;;;;;;;;19.10;99.90;;;;;;5044457;28;20040;-45
2023/07/20 08:15:23;;;;;;;1.17;0.10;;;19.10;99.90;;;;;;5041893;28;19916;-44
2023/07/20 08:17:51;;;;;;;;;;;19.00;99.90;;;;;;5038049;28;20076;-46
2023/07/20 08:20:17;;;;;;;1.70;0.20;;;19.00;99.90;;;;;;5036624;28;19921;-45
2023/07/20 08:22:42;;;;;;;0.47;0.15;;;19.00;99.90;;;;;;5040618;28;20064;-47
2023/07/20 08:25:09;;;;;;;2.08;0.30;;;19.00;99.90;;;;;;5040110;28;20065;-46
2023/07/20 08:27:34;;;;;;;;;;;19.00;99.90;;;;;;5043081;28;20044;-46
2023/07/20 08:30:00;;;;;;;1.13;0.20;;;19.10;99.90;;;;;;5051098;28;20321;-45
2023/07/20 08:32:25;;;;;;;;;;;19.10;99.90;;;;;;5051685;28;20032;-45
2023/07/20 08:34:51;;;;;;;1.05;0.17;;;19.10;99.90;;;;;;5050299;28;19916;-46
2023/07/20 08:37:17;;;;;;;1.90;0.20;;;19.10;99.90;;;;;;5051215;28;20037;-45
2023/07/20 08:39:42;;;;;;;2.03;0.20;;;19.20;99.90;;;;;;5038862;28;20448;-47
2023/07/20 08:42:10;;;;;;;3.15;0.22;;;19.40;99.90;;;;;;5047198;28;20541;-45
2023/07/20 08:44:38;;;;;;;4.13;0.30;;;19.40;99.90;;;;;;5059856;28;20072;-46
2023/07/20 08:47:05;;;;;;;2.22;0.20;;;19.50;99.90;;;;;;5057068;28;20120;-46
2023/07/20 08:49:35;;;;;;;2.13;0.20;;;19.40;99.90;;;;;;5050443;28;20044;-46
2023/07/20 08:52:01;;;;;;;0.38;0.10;;;19.40;99.90;;;;;;5047746;28;20037;-47
2023/07/20 08:54:29;;;;;;;;;;;19.40;99.90;;;;;;5036745;28;20067;-47
2023/07/20 08:56:56;;;;;;;2.30;0.20;;;19.30;99.90;;;;;;5035932;28;19917;-47
2023/07/20 08:59:24;;;;;;;1.20;0.20;;;19.30;99.90;;;;;;5042034;28;20069;-45
2023/07/20 09:01:52;;;;;;;2.47;0.10;;;19.30;99.90;;;;;;5038864;28;20549;-45
2023/07/20 09:04:17;;;;;;;2.28;0.28;;;19.40;99.90;;;;;;5038178;28;20040;-46
2023/07/20 09:06:43;;;;;;;2.80;0.43;;;19.40;99.90;;;;;;5044247;28;20037;-46
2023/07/20 09:09:09;;;;;;;2.33;0.40;;;19.50;99.90;;;;;;5043971;28;20040;-47
2023/07/20 09:11:34;;;;;;;;;;;19.50;99.90;;;;;;5044207;28;20116;-47
2023/07/20 09:14:07;;;;;;;2.15;0.30;;;19.60;99.90;;;;;;5041303;28;19972;-49
2023/07/20 09:16:46;;;;;;;5.32;0.30;;;19.70;99.90;;;;;;5040737;28;20525;-47
2023/07/20 09:19:12;;;;;;;1.80;0.30;;;19.80;99.90;;;;;;5043252;28;20045;-45
2023/07/20 09:21:37;;;;;;;14.48;0.68;;;19.90;99.90;;;;;;5049025;28;20043;-49
2023/07/20 09:24:03;;;;;;;;;;;20.10;99.90;;;;;;5046749;28;20041;-48
2023/07/20 09:26:28;;;;;;;6.88;0.20;;;20.30;99.90;;;;;;5038645;28;19921;-47
2023/07/20 09:28:55;;;;;;;;;;;20.40;99.90;;;;;;5047607;28;20040;-49
2023/07/20 09:31:22;;;;;;;1.80;0.20;;;20.50;99.60;;;;;;5040930;28;20663;-49
2023/07/20 09:33:49;;;;;;;3.28;0.22;;;20.50;99.90;;;;;;5041264;28;20032;-49
2023/07/20 09:36:15;;;;;;;1.98;0.25;;;20.40;99.90;;;;;;5043028;28;20033;-49
2023/07/20 09:38:43;;;;;;;;;;;20.30;99.90;;;;;;5039907;28;20029;-48
2023/07/20 09:41:15;;;;;;;14.90;0.55;;;20.30;99.60;;;;;;5037128;28;19964;-49
2023/07/20 09:43:41;;;;;;;3.78;0.32;;;20.20;99.90;;;;;;5035404;28;20037;-49
2023/07/20 09:46:07;;;;;;;2.95;0.38;;;20.20;99.90;;;;;;5033856;28;20044;-49
2023/07/20 09:48:32;;;;;;;;;;;20.20;99.80;;;;;;5040308;28;21049;-49
2023/07/20 09:50:58;;;;;;;2.40;0.20;;;20.10;99.40;;;;;;5034078;28;19928;-49
2023/07/20 09:53:24;;;;;;;;;;;20.10;99.50;;;;;;5041943;28;20029;-49
2023/07/20 09:55:51;;;;;;;1.83;0.30;;;20.10;99.70;;;;;;5042238;28;19917;-49
2023/07/20 09:58:17;;;;;;;12.60;0.65;;;20.10;99.60;;;;;;5046406;28;20448;-49
2023/07/20 10:00:45;;;;;;;;;;;20.20;99.90;;;;;;5035258;28;20038;-49
2023/07/20 10:03:12;;;;;;;0.63;0.20;;;20.40;99.00;;;;;;5044156;28;19917;-50
2023/07/20 10:05:44;;;;;;;2.78;0.20;;;20.50;99.30;;;;;;5044331;28;20057;-49
2023/07/20 10:08:12;;;;;;;3.60;0.20;;;20.60;99.30;;;;;;5047431;28;20094;-49
2023/07/20 10:10:43;;;;;;;2.15;0.20;;;20.50;99.10;;;;;;5050180;28;20513;-49
2023/07/20 10:13:17;;;;;;;1.98;0.30;;;20.40;98.90;;;;;;5049853;28;20037;-49
2023/07/20 10:15:55;;;;;;;1.95;0.20;;;20.40;98.90;;;;;;5043551;28;20037;-49
2023/07/20 10:18:44;;;;;;;3.95;0.30;;;20.30;99.40;;;;;;5034842;28;20320;-48
2023/07/20 10:21:10;;;;;;;0.88;0.20;;;20.30;99.90;;;;;;5046983;28;20045;-50
2023/07/20 10:23:37;;;;;;;;;;;20.30;99.50;;;;;;5048296;28;20494;-49
2023/07/20 10:26:03;;;;;;;2.53;0.30;;;20.30;99.30;;;;;;5053145;28;20355;-49
2023/07/20 10:28:28;;;;;;;;;;;20.30;99.60;;;;;;5070294;28;20040;-49
2023/07/20 10:30:54;;;;;;;2.58;0.30;;;20.20;99.50;;;;;;5037942;28;19917;-49
2023/07/20 10:33:20;;;;;;;;;;;20.20;99.40;;;;;;5049675;28;20125;-49
2023/07/20 10:36:01;;;;;;;0.82;0.20;;;20.10;99.40;;;;;;5047138;28;19917;-49
2023/07/20 10:38:51;;;;;;;1.75;0.30;;;20.00;99.80;;;;;;5041546;28;20038;-48
2023/07/20 10:41:26;;;;;;;4.60;0.40;;;19.90;99.90;;;;;;5043504;28;20044;-48
2023/07/20 10:43:58;;;;;;;1.92;0.30;;;19.90;99.90;;;;;;5042451;28;20036;-48
2023/07/20 10:46:39;;;;;;;1.27;0.43;;;19.70;99.90;;;;;;5050986;28;20154;-47
2023/07/20 10:49:06;;;;;;;2.03;0.50;;;19.60;99.90;;;;;;5050072;28;20045;-49
2023/07/20 10:51:59;;;;;;;3.10;0.40;;;19.40;99.90;;;;;;5052529;28;20402;-49
2023/07/20 10:54:28;;;;;;;0.57;0.30;;;19.30;99.90;;;;;;5039530;28;20397;-48
2023/07/20 10:56:56;;;;;;;1.10;0.32;;;19.10;99.90;;;;;;5052556;28;20091;-49
2023/07/20 10:59:25;;;;;;;0.65;0.25;;;18.90;99.90;;;;;;5052442;28;20123;-47
2023/07/20 11:02:01;;;;;;;2.50;0.45;;;18.80;99.90;;;;;;5051853;28;20035;-48
2023/07/20 11:04:40;;;;;;;1.35;0.35;;;18.60;99.90;;;;;;5051783;28;20224;-47
2023/07/20 11:07:06;;;;;;;0.82;0.30;;;18.50;99.90;;;;;;5052219;28;20125;-48
2023/07/20 11:09:35;;;;;;;;;;;18.40;99.90;;;;;;5053230;28;20033;-48
2023/07/20 11:12:12;;;;;;;1.50;0.40;;;18.30;99.90;;;;;;5052151;28;20007;-48
2023/07/20 11:14:56;;;;;;;2.65;0.40;;;18.30;99.90;;;;;;5052042;28;20021;-52
2023/07/20 11:17:29;;;;;;;0.20;0.20;;;18.30;99.90;;;;;;5041625;28;20073;-50
2023/07/20 11:19:56;;;;;;;2.67;0.38;;;18.20;99.90;;;;;;5036242;28;20041;-49
2023/07/20 11:22:22;;;;;;;0.98;0.30;;;18.20;99.90;;;;;;5049004;28;20049;-49
2023/07/20 11:24:49;;;;;;;1.20;0.30;;;18.20;99.90;;;;;;5050557;28;20102;-48
2023/07/20 11:27:15;;;;;;;1.27;0.20;;;18.20;99.90;;;;;;5039794;28;20084;-48
2023/07/20 11:29:41;;;;;;;0.50;0.20;;;18.20;99.90;;;;;;5048596;28;20398;-49
2023/07/20 11:32:07;;;;;;;0.70;0.30;;;18.20;99.90;;;;;;5047017;28;20037;-49
2023/07/20 11:34:34;;;;;;;;;;;18.20;99.90;;;;;;5044586;28;20037;-48
2023/07/20 11:37:00;;;;;;;0.50;0.30;;;18.20;99.90;;;;;;5045467;28;20328;-49
2023/07/20 11:39:25;;;;;;;0.73;0.20;;;18.20;99.90;;;;;;5043979;28;20067;-49
2023/07/20 11:41:54;;;;;;;0.45;0.20;;;18.30;99.90;;;;;;5049663;28;20032;-49
2023/07/20 11:44:27;;;;;;;2.25;0.32;;;18.20;99.90;;;;;;5047851;28;20037;-48
2023/07/20 11:47:03;;;;;;;1.05;0.40;;;18.20;99.90;;;;;;5045763;28;20037;-50
2023/07/20 11:49:29;;;;;;;1.88;0.40;;;18.30;99.90;;;;;;5049894;28;20726;-48
2023/07/20 11:51:57;;;;;;;3.28;0.40;;;18.30;99.90;;;;;;5051575;28;20029;-49
2023/07/20 11:54:24;;;;;;;0.55;0.32;;;18.40;99.90;;;;;;5050802;28;20517;-49
2023/07/20 11:56:54;;;;;;;0.63;0.40;;;18.50;99.90;;;;;;5042016;28;20087;-49
2023/07/20 11:59:20;;;;;;;0.50;0.30;;;18.50;99.90;;;;;;5040936;28;20049;-48
2023/07/20 12:01:46;;;;;;;0.50;0.25;;;18.60;99.90;;;;;;5042478;28;20033;-50
2023/07/20 12:04:11;;;;;;;1.23;0.40;;;18.70;99.90;;;;;;5043900;28;20076;-50
2023/07/20 12:06:37;;;;;;;4.70;1.00;;;18.70;99.90;;;;;;5046884;28;20040;-49
2023/07/20 12:09:03;;;;;;;3.50;0.90;;;18.70;99.90;;;;;;5041602;28;20040;-49
2023/07/20 12:11:32;;;;;;;2.83;0.70;;;18.80;99.90;;;;;;5044986;28;20151;-50
2023/07/20 12:13:58;;;;;;;0.98;0.20;;;19.00;99.90;;;;;;5039694;28;20029;-54
2023/07/20 12:16:26;;;;;;;;;;;19.10;99.90;;;;;;5044994;28;20076;-48
2023/07/20 12:18:59;;;;;;;1.40;0.30;;;19.30;99.90;;;;;;5040058;28;19921;-52
2023/07/20 12:21:25;;;;;;;3.03;0.20;;;19.30;99.90;;;;;;5035995;28;20056;-50
2023/07/20 12:23:51;;;;;;;1.08;0.20;;;19.50;99.90;;;;;;5038732;28;20045;-51
2023/07/20 12:26:16;;;;;;;;;;;19.50;99.90;;;;;;5043117;28;20055;-49
2023/07/20 12:28:42;;;;;;;0.40;0.20;;;19.60;99.90;;;;;;5037880;28;20392;-49
2023/07/20 12:31:10;;;;;;;2.55;0.30;;;19.80;99.90;;;;;;5035836;28;20069;-51
2023/07/20 12:33:39;;;;;;;0.32;0.10;;;19.90;99.90;;;;;;5040960;28;20498;-49
2023/07/20 12:36:05;;;;;;;2.13;0.45;;;20.00;99.90;;;;;;5038966;28;20060;-48
2023/07/20 12:38:31;;;;;;;2.40;0.30;;;20.10;99.90;;;;;;5036706;28;20494;-49
2023/07/20 12:40:57;;;;;;;;;;;20.20;99.90;;;;;;5038990;28;20458;-53
2023/07/20 12:43:23;;;;;;;1.48;0.20;;;20.30;99.90;;;;;;5042276;28;19917;-50
2023/07/20 12:45:48;;;;;;;3.10;0.20;;;20.30;99.50;;;;;;5040072;28;20493;-49
2023/07/20 12:48:14;;;;;;;;;;;20.30;99.20;;;;;;5039069;28;20155;-49
2023/07/20 12:50:39;;;;;;;1.05;0.20;;;20.30;98.80;;;;;;5041011;28;19917;-49
2023/07/20 12:53:05;;;;;;;;;;;20.40;99.80;;;;;;5039747;28;20033;-50